Time;durP1;ratioP1;P1;durP2;ratioP2;P2;SDS_P1;SDS_P2;PMS_P1;PMS_P2;Temp;Humidity;BMP_temperature;BMP_pressure;BME280_temperature;BME280_humidity;BME280_pressure;Samples;Min_cycle;Max_cycle;Signal;HPM_P1;HPM_P2
2022/05/16 00:02:15;;;;;;;;;7.67;5.67;;;;;22.83;100.00;100936.47;4970792;28;46726;-74
2022/05/16 00:04:43;;;;;;;;;7.33;6.33;;;;;22.80;100.00;100942.88;4974786;28;45912;-74
2022/05/16 00:07:09;;;;;;;;;5.33;5.33;;;;;22.73;100.00;100931.44;4976422;28;45495;-74
2022/05/16 00:09:35;;;;;;;;;6.33;6.00;;;;;22.71;100.00;100937.84;4975815;28;45345;-73
2022/05/16 00:12:01;;;;;;;;;8.00;6.67;;;;;22.72;100.00;100958.44;4967247;28;45488;-73
2022/05/16 00:14:26;;;;;;;;;7.67;7.67;;;;;22.78;100.00;100976.16;4968948;28;45974;-74
2022/05/16 00:16:52;;;;;;;;;9.00;9.00;;;;;22.80;100.00;100963.50;4966785;28;45393;-73
2022/05/16 00:19:17;;;;;;;;;8.33;7.33;;;;;22.83;100.00;100966.09;4969936;28;51477;-73
2022/05/16 00:21:43;;;;;;;;;9.67;8.00;;;;;22.86;100.00;100969.56;4976137;28;47226;-74
2022/05/16 00:24:08;;;;;;;;;13.00;8.67;;;;;22.82;100.00;100950.88;4974286;28;45360;-73
2022/05/16 00:26:34;;;;;;;;;8.00;7.00;;;;;22.73;100.00;100933.25;4976549;28;57798;-74
2022/05/16 00:28:59;;;;;;;;;7.00;6.33;;;;;22.67;100.00;100925.41;4976122;28;45531;-73
2022/05/16 00:31:25;;;;;;;;;11.33;9.00;;;;;22.61;100.00;100937.28;4968711;28;45386;-73
2022/05/16 00:33:51;;;;;;;;;11.00;8.00;;;;;22.59;100.00;100938.31;4969020;28;54343;-73
2022/05/16 00:36:16;;;;;;;;;9.33;8.67;;;;;22.54;100.00;100924.13;4974946;28;49832;-74
2022/05/16 00:38:42;;;;;;;;;8.33;8.00;;;;;22.53;100.00;100927.72;4974247;28;45555;-73
2022/05/16 00:41:07;;;;;;;;;9.67;7.67;;;;;22.54;100.00;100941.16;4975746;28;46330;-74
2022/05/16 00:43:52;;;;;;;;;9.67;6.33;;;;;22.54;100.00;100934.91;4977295;28;45309;-73
2022/05/16 00:46:19;;;;;;;;;7.00;6.00;;;;;22.53;100.00;100934.03;4971368;28;45319;-73
2022/05/16 00:48:45;;;;;;;;;8.33;7.00;;;;;22.55;100.00;100929.44;4979337;28;45524;-74
2022/05/16 00:51:15;;;;;;;;;6.00;6.00;;;;;22.54;100.00;100940.28;4978421;28;46376;-74
2022/05/16 00:53:42;;;;;;;;;6.00;5.33;;;;;22.53;100.00;100935.81;4966008;28;45207;-74
2022/05/16 00:56:07;;;;;;;;;5.67;4.00;;;;;22.48;100.00;100920.72;4979315;28;45565;-74
2022/05/16 00:58:34;;;;;;;;;6.33;6.33;;;;;22.47;100.00;100924.34;4975846;28;52035;-74
2022/05/16 01:01:00;;;;;;;;;6.67;4.67;;;;;22.43;100.00;100914.66;4972658;28;47440;-73
2022/05/16 01:06:09;;;;;;;;;6.00;5.33;;;;;22.44;100.00;100899.38;4968212;28;45290;-74
2022/05/16 01:08:37;;;;;;;;;5.33;5.33;;;;;22.41;100.00;100905.72;4977181;28;51594;-73
2022/05/16 01:11:07;;;;;;;;;5.33;4.00;;;;;22.39;100.00;100902.22;4968678;28;47626;-73
2022/05/16 01:13:32;;;;;;;;;5.00;5.00;;;;;22.38;100.00;100897.78;4966129;28;45585;-73
2022/05/16 01:15:59;;;;;;;;;7.00;5.67;;;;;22.43;100.00;100909.25;4975781;28;45663;-74
2022/05/16 01:18:26;;;;;;;;;6.00;5.00;;;;;22.44;100.00;100913.69;4979126;28;45639;-73
2022/05/16 01:21:30;;;;;;;;;4.00;4.00;;;;;22.43;100.00;100914.66;4977378;28;46460;-74
2022/05/16 01:24:07;;;;;;;;;6.00;5.00;;;;;22.45;100.00;100907.38;4951518;28;45501;-73
2022/05/16 01:26:33;;;;;;;;;5.67;4.00;;;;;22.43;100.00;100908.38;4960638;28;45634;-73
2022/05/16 01:28:59;;;;;;;;;2.33;2.33;;;;;22.46;100.00;100917.19;4957607;28;45723;-74
2022/05/16 01:31:24;;;;;;;;;4.00;4.00;;;;;22.46;100.00;100925.28;4977471;28;46522;-74
2022/05/16 01:33:50;;;;;;;;;4.00;4.00;;;;;22.46;100.00;100905.56;4973514;28;45396;-74
2022/05/16 01:36:16;;;;;;;;;3.67;3.67;;;;;22.49;100.00;100918.91;4968012;28;45473;-74
2022/05/16 01:38:41;;;;;;;;;4.00;3.00;;;;;22.46;100.00;100909.13;4978850;28;45500;-73
2022/05/16 01:41:09;;;;;;;;;5.67;3.33;;;;;22.45;100.00;100930.72;4971996;28;47350;-73
2022/05/16 01:43:38;;;;;;;;;6.33;4.00;;;;;22.41;100.00;100940.72;4975505;28;45467;-74
2022/05/16 01:46:04;;;;;;;;;7.00;5.00;;;;;22.37;100.00;100933.72;4965523;28;45465;-74
2022/05/16 01:48:30;;;;;;;;;5.00;4.00;;;;;22.38;100.00;100935.47;4971973;28;45574;-73
2022/05/16 01:51:02;;;;;;;;;4.00;4.00;;;;;22.35;100.00;100922.09;4963867;28;46284;-73
2022/05/16 01:53:28;;;;;;;;;6.67;3.67;;;;;22.37;100.00;100927.41;4975969;28;45338;-73
2022/05/16 01:55:54;;;;;;;;;4.00;4.00;;;;;22.35;100.00;100932.88;4958914;28;45317;-74
2022/05/16 01:58:19;;;;;;;;;5.33;5.33;;;;;22.33;100.00;100923.09;4967827;28;54425;-75
2022/05/16 02:00:45;;;;;;;;;5.33;4.67;;;;;22.31;100.00;100933.03;4977670;28;46124;-74
2022/05/16 02:03:11;;;;;;;;;7.00;5.00;;;;;22.28;100.00;100947.47;4970636;28;45461;-74
2022/05/16 02:05:37;;;;;;;;;5.33;4.67;;;;;22.26;100.00;100946.63;4970803;28;45421;-74
2022/05/16 02:08:03;;;;;;;;;6.00;5.33;;;;;22.25;100.00;100942.19;4970528;28;45448;-74
2022/05/16 02:10:29;;;;;;;;;6.00;5.33;;;;;22.19;100.00;100940.59;4970514;28;45524;-74
2022/05/16 02:12:57;;;;;;;;;5.00;5.00;;;;;22.19;100.00;100945.97;4962756;28;45533;-73
2022/05/16 02:15:23;;;;;;;;;8.33;5.00;;;;;22.21;100.00;100945.91;4976399;28;45388;-74
2022/05/16 02:17:49;;;;;;;;;5.67;5.67;;;;;22.21;100.00;100938.75;4976889;28;45398;-74
2022/05/16 02:20:14;;;;;;;;;6.00;6.00;;;;;22.21;100.00;100943.22;4977465;28;55453;-75
2022/05/16 02:25:25;;;;;;;;;6.00;6.00;;;;;22.18;100.00;100924.53;4960877;28;45393;-74
2022/05/16 02:27:51;;;;;;;;;5.67;4.67;;;;;22.14;100.00;100950.63;4978112;28;47010;-74
2022/05/16 02:30:17;;;;;;;;;6.33;5.00;;;;;22.12;100.00;100936.38;4968951;28;46348;-74
2022/05/16 02:32:43;;;;;;;;;6.33;6.00;;;;;22.12;100.00;100935.50;4964084;28;45331;-74
2022/05/16 02:35:09;;;;;;;;;7.00;6.00;;;;;22.11;100.00;100944.50;4974125;28;48009;-74
2022/05/16 02:37:34;;;;;;;;;7.67;6.00;;;;;22.11;100.00;100952.59;4962814;28;45279;-74
2022/05/16 02:39:59;;;;;;;;;10.67;7.00;;;;;22.09;100.00;100946.31;4977600;28;46369;-74
2022/05/16 02:42:25;;;;;;;;;6.00;6.00;;;;;22.12;100.00;100949.81;4977322;28;45242;-74
2022/05/16 02:44:53;;;;;;;;;8.00;8.00;;;;;22.12;100.00;100957.91;4974882;28;45325;-74
2022/05/16 02:47:20;;;;;;;;;9.00;7.50;;;;;22.13;100.00;100966.84;4977186;28;45553;-74
2022/05/16 02:49:46;;;;;;;;;10.33;8.00;;;;;22.10;100.00;100961.53;4977333;28;46366;-74
2022/05/16 02:52:12;;;;;;;;;10.00;10.00;;;;;22.11;100.00;100960.66;4970267;28;45488;-74
2022/05/16 02:54:38;;;;;;;;;9.00;8.00;;;;;22.11;100.00;100966.03;4970535;28;45456;-74
2022/05/16 02:57:04;;;;;;;;;10.33;9.00;;;;;22.05;100.00;100963.50;4977056;28;45322;-75
2022/05/16 02:59:32;;;;;;;;;9.00;8.00;;;;;22.08;100.00;100974.16;4964822;28;45508;-74
2022/05/16 03:02:03;;;;;;;;;9.00;7.67;;;;;22.07;100.00;100967.91;4974863;28;45369;-75
2022/05/16 03:04:29;;;;;;;;;10.00;10.00;;;;;22.03;100.00;100970.75;4977333;28;45517;-74
2022/05/16 03:06:55;;;;;;;;;11.67;9.00;;;;;22.03;100.00;100976.13;4975996;28;45460;-73
2022/05/16 03:09:21;;;;;;;;;11.00;9.00;;;;;21.94;100.00;100970.13;4968161;28;46362;-74
2022/05/16 03:11:47;;;;;;;;;11.00;10.00;;;;;21.90;100.00;100967.59;4970286;28;45507;-74
2022/05/16 03:14:13;;;;;;;;;10.00;8.00;;;;;21.91;100.00;100972.03;4968097;28;45516;-74
2022/05/16 03:16:38;;;;;;;;;8.33;8.33;;;;;21.91;100.00;100972.91;4970068;28;45496;-74
2022/05/16 03:19:04;;;;;;;;;11.67;9.33;;;;;21.92;100.00;100973.78;4970373;28;61557;-74
2022/05/16 03:21:30;;;;;;;;;8.67;8.00;;;;;21.83;100.00;100969.59;4963780;28;46008;-74
2022/05/16 03:23:56;;;;;;;;;9.67;9.00;;;;;21.85;100.00;100973.13;4962196;28;45286;-75
2022/05/16 03:26:22;;;;;;;;;15.33;11.33;;;;;21.86;100.00;100987.44;4976066;28;45425;-74
2022/05/16 03:28:47;;;;;;;;;11.67;11.67;;;;;21.84;100.00;101000.03;4970524;28;46390;-75
2022/05/16 03:31:13;;;;;;;;;11.00;8.00;;;;;21.83;100.00;101006.34;4991752;28;45413;-74
2022/05/16 03:33:38;;;;;;;;;14.00;10.67;;;;;21.81;100.00;101006.41;4973062;28;51139;-73
2022/05/16 03:36:04;;;;;;;;;13.33;11.00;;;;;21.83;100.00;101001.84;4965116;28;45663;-74
2022/05/16 03:41:14;;;;;;;;;10.33;10.33;;;;;21.79;100.00;100986.78;4969115;28;45373;-75
2022/05/16 03:43:40;;;;;;;;;12.00;10.00;;;;;21.80;100.00;100980.47;4975773;28;48743;-74
2022/05/16 03:46:06;;;;;;;;;14.33;14.33;;;;;21.77;100.00;100979.69;4974668;28;46166;-74
2022/05/16 03:48:32;;;;;;;;;16.67;13.67;;;;;21.77;100.00;100985.06;4958296;28;45354;-74
2022/05/16 03:50:59;;;;;;;;;11.33;10.33;;;;;21.77;100.00;100990.44;4970275;28;45543;-75
2022/05/16 03:53:24;;;;;;;;;15.00;12.00;;;;;21.70;100.00;100985.25;4976728;28;45564;-74
2022/05/16 03:55:49;;;;;;;;;13.33;12.00;;;;;21.70;100.00;101004.06;4965950;28;49562;-75
2022/05/16 03:58:15;;;;;;;;;15.33;15.33;;;;;21.68;100.00;101016.69;4967440;28;63555;-73
2022/05/16 04:00:41;;;;;;;;;16.00;12.67;;;;;21.65;100.00;101022.16;4989218;28;45464;-74
2022/05/16 04:03:07;;;;;;;;;19.00;14.00;;;;;21.63;100.00;101031.22;4967491;28;45308;-74
2022/05/16 04:05:32;;;;;;;;;17.33;14.67;;;;;21.60;100.00;101037.53;4976802;28;46037;-74
2022/05/16 04:07:58;;;;;;;;;13.67;12.67;;;;;21.52;100.00;101030.63;4973510;28;53508;-74
2022/05/16 04:10:24;;;;;;;;;14.00;14.00;;;;;21.55;100.00;101039.50;4962818;28;45426;-74
2022/05/16 04:12:50;;;;;;;;;17.33;14.33;;;;;21.57;100.00;101048.41;4965772;28;45310;-74
2022/05/16 04:15:16;;;;;;;;;13.67;13.00;;;;;21.54;100.00;101042.22;4960370;28;45515;-74
2022/05/16 04:17:42;;;;;;;;;15.33;13.67;;;;;21.56;100.00;101049.31;4962537;28;46426;-74
2022/05/16 04:20:09;;;;;;;;;12.67;12.67;;;;;21.58;100.00;101046.59;4967161;28;45444;-74
2022/05/16 04:22:35;;;;;;;;;18.67;16.00;;;;;21.58;100.00;101047.47;4976305;28;45436;-74
2022/05/16 04:25:00;;;;;;;;;17.33;14.67;;;;;21.60;100.00;101050.09;4967932;28;45442;-74
2022/05/16 04:27:26;;;;;;;;;14.00;14.00;;;;;21.59;100.00;101049.22;4975796;28;46304;-74
2022/05/16 04:29:51;;;;;;;;;13.33;13.33;;;;;21.62;100.00;101062.53;4972527;28;56815;-74
2022/05/16 04:32:16;;;;;;;;;15.33;13.00;;;;;21.64;100.00;101063.41;4957420;28;55167;-74
2022/05/16 04:34:42;;;;;;;;;15.67;13.00;;;;;21.62;100.00;101062.53;4966214;28;48459;-75
2022/05/16 04:37:07;;;;;;;;;14.33;12.33;;;;;21.65;100.00;101083.09;4964529;28;63337;-74
2022/05/16 04:39:33;;;;;;;;;19.67;15.00;;;;;21.65;100.00;101089.34;4960101;28;45525;-74
2022/05/16 04:44:42;;;;;;;;;18.67;15.00;;;;;21.60;100.00;101098.47;4968399;28;45475;-74
2022/05/16 04:47:08;;;;;;;;;16.67;13.67;;;;;21.58;100.00;101111.09;4968054;28;61762;-74
2022/05/16 04:49:35;;;;;;;;;15.00;14.00;;;;;21.59;100.00;101118.22;4974049;28;45411;-74
2022/05/16 04:52:00;;;;;;;;;16.00;13.33;;;;;21.60;100.00;101131.59;4975527;28;45396;-75
2022/05/16 04:54:26;;;;;;;;;13.67;12.00;;;;;21.62;100.00;101135.09;4975319;28;45376;-74
2022/05/16 04:56:51;;;;;;;;;13.67;13.67;;;;;21.61;100.00;101140.53;4967969;28;46385;-74
2022/05/16 04:59:18;;;;;;;;;15.67;13.67;;;;;21.61;100.00;101149.47;4957817;28;45481;-74
2022/05/16 05:01:43;;;;;;;;;19.00;15.00;;;;;21.57;100.00;101158.56;4969525;28;45215;-74
2022/05/16 05:04:08;;;;;;;;;16.33;13.67;;;;;21.57;100.00;101163.03;4975511;28;47973;-74
2022/05/16 05:06:34;;;;;;;;;19.00;16.67;;;;;21.50;100.00;101170.41;4973263;28;63358;-74
2022/05/16 05:09:00;;;;;;;;;21.00;17.33;;;;;21.44;100.00;101163.41;4967778;28;45386;-74
2022/05/16 05:17:10;;;;;;;;;26.00;22.33;;;;;21.25;100.00;101170.19;4968408;28;46501;-73
2022/05/16 05:19:39;;;;;;;;;18.67;18.67;;;;;21.20;100.00;101166.78;4972452;28;45564;-74
2022/05/16 05:22:05;;;;;;;;;19.00;16.67;;;;;21.16;100.00;101176.69;4964061;28;45293;-74
2022/05/16 05:24:30;;;;;;;;;19.33;16.67;;;;;21.15;100.00;101180.31;4962998;28;45372;-74
2022/05/16 05:26:55;;;;;;;;;18.33;17.00;;;;;21.13;100.00;101178.59;4965966;28;60285;-73
2022/05/16 05:29:22;;;;;;;;;20.33;18.00;;;;;21.16;100.00;101178.50;5075135;22;59359;-75
2022/05/16 05:31:48;;;;;;;;;18.33;16.67;;;;;21.16;100.00;101184.75;4959870;28;45692;-75
2022/05/16 05:34:13;;;;;;;;;14.33;14.33;;;;;21.14;100.00;101194.63;4957141;28;45471;-75
2022/05/16 05:36:40;;;;;;;;;17.67;17.67;;;;;21.12;100.00;101191.13;4956203;28;46089;-73
2022/05/16 05:39:05;;;;;;;;;19.67;17.33;;;;;21.14;100.00;101202.69;4958533;28;45534;-74
2022/05/16 05:41:31;;;;;;;;;16.67;16.67;;;;;21.17;100.00;101207.13;4957828;28;45424;-73
2022/05/16 05:43:57;;;;;;;;;17.67;16.67;;;;;21.22;100.00;101207.88;4959266;28;45428;-74
2022/05/16 05:46:22;;;;;;;;;21.00;18.67;;;;;21.23;100.00;101209.63;4959336;28;46818;-74
2022/05/16 05:48:48;;;;;;;;;16.33;15.33;;;;;21.26;100.00;101209.56;4958188;28;45386;-75
2022/05/16 05:51:14;;;;;;;;;17.33;14.67;;;;;21.30;100.00;101215.75;4958668;28;45915;-76
2022/05/16 05:53:41;;;;;;;;;17.67;15.33;;;;;21.29;100.00;101219.34;4958240;28;45563;-75
2022/05/16 05:56:08;;;;;;;;;19.33;16.67;;;;;21.31;100.00;101226.47;4955398;28;46735;-74
2022/05/16 05:58:33;;;;;;;;;17.00;15.33;;;;;21.35;100.00;101232.63;4955343;28;45509;-75
2022/05/16 06:01:00;;;;;;;;;18.33;15.33;;;;;21.34;100.00;101236.25;4958863;28;45773;-75
2022/05/16 06:03:25;;;;;;;;;19.33;17.33;;;;;21.38;100.00;101251.38;4959200;28;45648;-76
2022/05/16 06:05:51;;;;;;;;;18.33;15.33;;;;;21.36;100.00;101263.94;4958814;28;47325;-74
2022/05/16 06:08:17;;;;;;;;;17.33;15.67;;;;;21.31;100.00;101265.91;4956722;28;45469;-73
2022/05/16 06:10:42;;;;;;;;;19.00;17.33;;;;;21.27;100.00;101274.91;4957203;28;45604;-73
2022/05/16 06:13:08;;;;;;;;;19.00;14.33;;;;;21.22;100.00;101282.19;4958059;28;45562;-73
2022/05/16 06:15:34;;;;;;;;;30.00;19.00;;;;;21.14;100.00;101279.69;4950658;28;45827;-73
2022/05/16 06:17:59;;;;;;;;;17.33;15.67;;;;;21.09;100.00;101284.31;4958860;28;45243;-73
2022/05/16 06:20:25;;;;;;;;;17.00;14.33;;;;;21.07;100.00;101289.72;4958443;28;45356;-74
2022/05/16 06:22:50;;;;;;;;;18.00;15.33;;;;;21.05;100.00;101304.13;4957239;28;45511;-73
2022/05/16 06:25:34;;;;;;;;;17.00;13.33;;;;;21.00;100.00;101298.84;4957018;28;50064;-73
2022/05/16 06:28:07;;;;;;;;;13.00;10.33;;;;;20.95;100.00;101299.91;4955261;28;45569;-72
2022/05/16 06:30:34;;;;;;;;;17.67;15.00;;;;;20.87;100.00;101303.63;4950857;28;45703;-72
2022/05/16 06:32:59;;;;;;;;;19.00;16.00;;;;;20.81;100.00;101300.22;4955214;28;45873;-71
2022/05/16 06:35:25;;;;;;;;;16.67;14.00;;;;;20.82;100.00;101305.53;4949464;28;57243;-72
2022/05/16 06:37:51;;;;;;;;;16.67;16.33;;;;;20.79;100.00;101308.31;4954696;28;45436;-72
2022/05/16 06:40:18;;;;;;;;;19.33;15.33;;;;;20.85;100.00;101313.53;4956214;28;45418;-72
2022/05/16 06:42:43;;;;;;;;;21.33;17.00;;;;;20.87;100.00;101319.72;4954956;28;45378;-73
2022/05/16 06:45:09;;;;;;;;;7.00;5.67;;;;;20.89;100.00;101325.09;4956221;28;46518;-72
2022/05/16 06:47:35;;;;;;;;;14.00;12.33;;;;;20.89;100.00;101322.41;4956682;28;45417;-74
2022/05/16 06:50:00;;;;;;;;;18.00;15.00;;;;;20.85;100.00;101331.44;4952252;28;45684;-73
2022/05/16 06:52:26;;;;;;;;;16.00;15.00;;;;;20.88;100.00;101345.69;4953340;28;54435;-74
2022/05/16 06:54:52;;;;;;;;;16.33;11.33;;;;;20.93;100.00;101351.81;4956058;28;46228;-73
2022/05/16 06:57:17;;;;;;;;;15.33;14.00;;;;;20.95;100.00;101350.91;4955857;28;45610;-74
2022/05/16 06:59:43;;;;;;;;;17.33;13.67;;;;;20.94;100.00;101360.75;4955349;28;45552;-73
2022/05/16 07:02:09;;;;;;;;;16.00;13.67;;;;;20.93;100.00;101345.53;4956313;28;45522;-73
2022/05/16 07:04:39;;;;;;;;;13.00;13.00;;;;;20.93;100.00;101349.16;4954669;28;46027;-72
2022/05/16 07:07:06;;;;;;;;;19.33;15.00;;;;;21.03;100.00;101359.63;4955913;28;45534;-72
2022/05/16 07:09:31;;;;;;;;;18.67;14.33;;;;;21.07;100.00;101361.34;4956099;28;45662;-71
2022/05/16 07:11:57;;;;;;;;;13.67;12.67;;;;;21.14;100.00;101371.00;4955644;28;45548;-71
2022/05/16 07:14:22;;;;;;;;;18.33;12.33;;;;;21.15;100.00;101373.69;4955051;28;52687;-72
2022/05/16 07:16:47;;;;;;;;;13.00;11.67;;;;;21.25;100.00;101384.16;4955207;28;59783;-74
2022/05/16 07:19:13;;;;;;;;;13.33;10.00;;;;;21.29;100.00;101385.88;4954541;28;45494;-74
2022/05/16 07:21:38;;;;;;;;;23.33;12.67;;;;;21.31;100.00;101382.28;4955260;28;45453;-74
2022/05/16 07:24:05;;;;;;;;;13.67;13.67;;;;;21.37;100.00;101387.50;4954850;28;51270;-72
2022/05/16 07:29:14;;;;;;;;;12.00;12.00;;;;;21.48;100.00;101395.28;4954815;28;45552;-72
2022/05/16 07:31:40;;;;;;;;;15.00;11.67;;;;;21.44;100.00;101380.16;4955906;28;45614;-73
2022/05/16 07:34:05;;;;;;;;;14.00;13.00;;;;;21.53;100.00;101395.19;4955559;28;47632;-73
2022/05/16 07:36:31;;;;;;;;;11.00;10.33;;;;;21.60;100.00;101407.53;4955649;28;45425;-72
2022/05/16 07:38:56;;;;;;;;;8.33;8.33;;;;;21.58;100.00;101399.50;4955484;28;57953;-71
2022/05/16 07:41:22;;;;;;;;;11.00;10.00;;;;;21.62;100.00;101409.22;4954514;28;45608;-73
2022/05/16 07:43:47;;;;;;;;;12.00;9.00;;;;;21.62;100.00;101413.72;4954545;28;45730;-72
2022/05/16 07:46:12;;;;;;;;;14.00;11.33;;;;;21.64;100.00;101415.47;4955336;28;56590;-73
2022/05/16 07:48:38;;;;;;;;;12.00;9.33;;;;;21.65;100.00;101417.22;4954859;28;45357;-72
2022/05/16 07:51:03;;;;;;;;;10.00;10.00;;;;;21.64;100.00;101425.34;4955363;28;45540;-73
2022/05/16 07:53:29;;;;;;;;;14.00;9.67;;;;;21.61;100.00;101417.34;4955000;28;46580;-73
2022/05/16 07:55:56;;;;;;;;;14.00;10.00;;;;;21.64;100.00;101419.97;4955546;28;45397;-74
2022/05/16 07:58:22;;;;;;;;;12.67;11.33;;;;;21.67;100.00;101420.75;4954265;28;45469;-72
2022/05/16 08:00:49;;;;;;;;;11.00;9.00;;;;;21.73;100.00;101424.22;4955212;28;45603;-73
2022/05/16 08:03:15;;;;;;;;;9.00;9.00;;;;;21.78;100.00;101439.28;4954425;28;45440;-73
2022/05/16 08:05:41;;;;;;;;;10.00;10.00;;;;;21.77;100.00;101439.34;4954139;28;45608;-73
2022/05/16 08:10:52;;;;;;;;;9.33;9.33;;;;;21.80;100.00;101441.97;4956440;28;45399;-72
2022/05/16 08:13:17;;;;;;;;;12.33;7.33;;;;;21.85;100.00;101446.28;4955247;28;45873;-74
2022/05/16 08:15:43;;;;;;;;;14.67;11.33;;;;;21.85;100.00;101437.34;4954157;28;61831;-74
2022/05/16 08:18:10;;;;;;;;;16.67;10.33;;;;;21.95;100.00;101442.44;4955613;28;45357;-73
2022/05/16 08:20:37;;;;;;;;;7.00;7.00;;;;;22.00;100.00;101452.19;4953210;28;45537;-72
2022/05/16 08:23:04;;;;;;;;;9.67;7.33;;;;;22.08;100.00;101453.75;4955352;28;45774;-72
2022/05/16 08:25:29;;;;;;;;;12.33;8.00;;;;;22.13;100.00;101446.47;4954339;28;45570;-73
2022/05/16 08:27:54;;;;;;;;;8.33;7.00;;;;;22.18;100.00;101447.22;4954000;28;45576;-72
2022/05/16 08:30:21;;;;;;;;;9.00;9.00;;;;;22.28;100.00;101447.00;4954686;28;56431;-71
2022/05/16 08:32:46;;;;;;;;;8.33;8.33;;;;;22.31;100.00;101454.97;4954821;28;46595;-72
2022/05/16 08:35:13;;;;;;;;;8.00;7.00;;;;;22.34;100.00;101460.28;4954727;28;46039;-75
2022/05/16 08:40:30;;;;;;;;;9.00;7.00;;;;;22.35;100.00;101462.91;4950056;28;45558;-71
2022/05/16 08:43:47;;;;;;;;;12.00;11.00;;;;;22.33;100.00;101459.38;4951882;28;45326;-72
2022/05/16 08:46:18;;;;;;;;;10.33;9.00;;;;;22.34;100.00;101462.97;4928527;28;45620;-73
2022/05/16 08:48:48;;;;;;;;;8.00;7.33;;;;;22.38;100.00;101468.22;4954908;28;45692;-72
2022/05/16 08:51:21;;;;;;;;;10.00;9.33;;;;;22.40;100.00;101460.97;4954850;28;46319;-72
2022/05/16 08:54:10;;;;;;;;;13.00;8.67;;;;;22.38;100.00;101473.59;4965716;28;47756;-72
2022/05/16 08:56:38;;;;;;;;;9.00;8.00;;;;;22.39;100.00;101474.47;4954892;28;45874;-71
2022/05/16 08:59:20;;;;;;;;;7.00;7.00;;;;;22.34;100.00;101476.41;4953879;28;45553;-72
2022/05/16 09:02:02;;;;;;;;;9.33;8.33;;;;;22.34;100.00;101485.38;4952370;28;45493;-71
2022/05/16 09:04:35;;;;;;;;;8.00;7.67;;;;;22.31;100.00;101482.75;4955927;28;47765;-71
2022/05/16 09:07:05;;;;;;;;;10.67;9.33;;;;;22.34;100.00;101492.56;4958427;28;45586;-72
2022/05/16 09:09:52;;;;;;;;;10.00;7.33;;;;;22.35;100.00;101503.28;4953561;28;45508;-71
2022/05/16 09:12:23;;;;;;;;;9.67;7.00;;;;;22.38;100.00;101500.50;4958145;28;45570;-72
2022/05/16 09:15:11;;;;;;;;;9.67;7.33;;;;;22.40;100.00;101497.75;4956419;28;45816;-72
2022/05/16 09:17:49;;;;;;;;;10.00;8.67;;;;;22.37;100.00;101498.75;4972500;28;45497;-73
2022/05/16 09:20:54;;;;;;;;;12.00;8.00;;;;;22.32;100.00;101503.38;4940396;28;46624;-72
2022/05/16 09:23:31;;;;;;;;;7.00;7.00;;;;;22.27;100.00;101508.00;4944633;28;45470;-74
2022/05/16 09:26:18;;;;;;;;;7.00;6.00;;;;;22.19;100.00;101516.25;4950380;28;46456;-72
2022/05/16 09:28:48;;;;;;;;;9.67;6.67;;;;;22.10;100.00;101510.19;4956656;28;45633;-73
2022/05/16 09:31:21;;;;;;;;;7.67;7.00;;;;;22.03;100.00;101503.22;4956339;28;45553;-71
2022/05/16 09:33:52;;;;;;;;;11.00;8.67;;;;;21.99;100.00;101513.16;4960303;28;45603;-75
2022/05/16 09:36:24;;;;;;;;;8.00;8.00;;;;;22.04;100.00;101523.78;4957982;28;47378;-72
2022/05/16 09:38:49;;;;;;;;;12.00;10.00;;;;;22.09;100.00;101529.94;4957405;28;45479;-71
2022/05/16 09:41:36;;;;;;;;;8.00;8.00;;;;;22.11;100.00;101528.16;4938887;28;45308;-73
2022/05/16 09:44:11;;;;;;;;;11.00;7.00;;;;;22.12;100.00;101525.41;4957540;28;45648;-72
2022/05/16 09:46:42;;;;;;;;;13.33;7.00;;;;;22.13;100.00;101526.28;4956911;28;46225;-72
2022/05/16 09:49:21;;;;;;;;;10.00;7.00;;;;;22.21;100.00;101529.66;4956829;28;45452;-72
2022/05/16 09:51:52;;;;;;;;;8.00;7.00;;;;;22.24;100.00;101532.28;4958491;28;45558;-71
2022/05/16 09:54:31;;;;;;;;;7.67;7.67;;;;;22.32;100.00;101538.34;4953174;28;45352;-72
2022/05/16 09:57:02;;;;;;;;;5.00;5.00;;;;;22.34;100.00;101530.22;4957446;28;46588;-73
2022/05/16 09:59:43;;;;;;;;;10.67;9.00;;;;;22.40;100.00;101535.44;4957011;28;45488;-73
2022/05/16 10:02:13;;;;;;;;;7.33;7.33;;;;;22.38;100.00;101538.19;4949273;28;45433;-72
2022/05/16 10:04:41;;;;;;;;;11.33;8.00;;;;;22.41;100.00;101546.16;4958034;28;45572;-73
2022/05/16 10:07:06;;;;;;;;;6.67;6.67;;;;;22.42;100.00;101541.66;4958596;28;47526;-72
2022/05/16 10:09:47;;;;;;;;;9.33;7.67;;;;;22.48;100.00;101541.50;4957530;28;56911;-72
2022/05/16 10:12:16;;;;;;;;;7.00;7.00;;;;;22.59;100.00;101541.22;4957615;28;45408;-73
2022/05/16 10:14:42;;;;;;;;;8.33;8.00;;;;;22.67;100.00;101539.19;4959049;28;45302;-72
2022/05/16 10:17:12;;;;;;;;;8.33;6.00;;;;;22.85;100.00;101549.44;4956840;28;46383;-72
2022/05/16 10:19:39;;;;;;;;;7.00;7.00;;;;;22.91;100.00;101553.81;4956387;28;45524;-71
2022/05/16 10:22:08;;;;;;;;;7.00;6.00;;;;;22.83;100.00;101547.72;4957488;28;45372;-71
2022/05/16 10:24:40;;;;;;;;;7.00;7.00;;;;;22.84;100.00;101538.69;4956346;28;45790;-72
2022/05/16 10:27:09;;;;;;;;;8.00;7.00;;;;;22.89;100.00;101545.75;4956625;28;46614;-73
2022/05/16 10:29:40;;;;;;;;;8.33;5.67;;;;;22.87;100.00;101531.44;4957806;28;45315;-73
2022/05/16 10:35:04;;;;;;;;;5.00;5.00;;;;;22.95;100.00;101540.19;4958116;28;45515;-72
2022/05/16 10:37:32;;;;;;;;;6.00;4.67;;;;;22.97;100.00;101541.03;4956414;28;46512;-71
2022/05/16 10:40:15;;;;;;;;;5.00;5.00;;;;;23.03;100.00;101534.59;4956911;28;45331;-73
2022/05/16 10:42:49;;;;;;;;;5.33;4.33;;;;;23.08;100.00;101538.03;4939602;28;45502;-73
2022/05/16 10:45:18;;;;;;;;;6.00;5.00;;;;;23.16;100.00;101535.09;4956452;28;45486;-73
2022/05/16 10:47:52;;;;;;;;;5.33;5.33;;;;;23.23;100.00;101532.19;4957514;28;45757;-73
2022/05/16 10:50:34;;;;;;;;;7.00;5.00;;;;;23.32;100.00;101536.41;4956459;28;45602;-72
2022/05/16 10:53:08;;;;;;;;;7.00;7.00;;;;;23.36;100.00;101539.88;4957074;28;45516;-71
2022/05/16 10:55:57;;;;;;;;;9.00;6.00;;;;;23.44;100.00;101532.47;4957337;28;45315;-72
2022/05/16 10:58:22;;;;;;;;;3.00;3.00;;;;;23.55;100.00;101541.09;4956050;28;46615;-72
2022/05/16 11:00:55;;;;;;;;;7.00;6.33;;;;;23.62;100.00;101548.03;4957291;28;45531;-73
2022/05/16 11:03:39;;;;;;;;;5.00;5.00;;;;;23.68;100.00;101533.50;4958088;28;45496;-72
2022/05/16 11:06:37;;;;;;;;;5.67;5.00;;;;;23.71;100.00;101537.00;4957117;28;45504;-73
2022/05/16 11:09:08;;;;;;;;;6.00;5.00;;;;;23.74;100.00;101536.88;4956324;28;46429;-71
2022/05/16 11:11:46;;;;;;;;;4.67;4.00;;;;;23.76;100.00;101531.47;4957575;28;45353;-72
2022/05/16 11:14:36;;;;;;;;;6.67;4.33;;;;;23.84;100.00;101536.59;4957300;28;45161;-72
2022/05/16 11:17:50;;;;;;;;;4.33;4.00;;;;;23.93;100.00;101536.31;4952993;28;45496;-72
2022/05/16 11:20:35;;;;;;;;;5.67;4.00;;;;;24.01;100.00;101543.19;4954140;28;45712;-73
2022/05/16 11:23:34;;;;;;;;;8.33;5.00;;;;;24.14;100.00;101540.09;4957513;28;45326;-73
2022/05/16 11:26:28;;;;;;;;;6.00;6.00;;;;;24.28;100.00;101554.84;4957420;28;45665;-71
2022/05/16 11:29:18;;;;;;;;;7.00;5.00;;;;;24.47;100.00;101543.47;4956603;28;45219;-71
2022/05/16 11:32:04;;;;;;;;;5.00;5.00;;;;;24.66;100.00;101541.88;4955494;28;45840;-73
2022/05/16 11:34:43;;;;;;;;;5.00;5.00;;;;;24.70;100.00;101538.09;4947600;28;45513;-72
2022/05/16 11:37:12;;;;;;;;;4.00;4.00;;;;;24.74;100.00;101534.38;4957402;28;45313;-72
2022/05/16 11:39:46;;;;;;;;;3.67;3.67;;;;;24.69;100.00;101536.34;4953994;28;45702;-71
2022/05/16 11:42:48;;;;;;;;;4.00;4.00;;;;;24.76;100.00;101537.00;4957558;28;46405;-72
2022/05/16 11:45:29;;;;;;;;;4.00;3.00;;;;;24.78;100.00;101524.34;4954386;28;45281;-72
2022/05/16 11:48:20;;;;;;;;;5.00;4.00;;;;;24.83;100.00;101519.66;4956037;28;45563;-73